sensor_id;sensor_type;location;lat;lon;timestamp;pressure;altitude;pressure_sealevel;temperature;humidity
1077;BME280;64114;48.726;9.370;2022-12-04T00:01:26;98302.38;;;4.37;86.19
1077;BME280;64114;48.726;9.370;2022-12-04T00:03:57;98429.31;;;5.10;86.37
1077;BME280;64114;48.726;9.370;2022-12-04T00:06:26;98449.94;;;5.22;86.89
1077;BME280;64114;48.726;9.370;2022-12-04T00:08:56;98425.00;;;5.06;86.86
1077;BME280;64114;48.726;9.370;2022-12-04T00:11:26;98421.44;;;4.98;86.60
1077;BME280;64114;48.726;9.370;2022-12-04T00:13:55;98444.50;;;5.07;86.31
1077;BME280;64114;48.726;9.370;2022-12-04T00:16:32;98449.13;;;5.23;86.75
1077;BME280;64114;48.726;9.370;2022-12-04T00:19:00;98233.00;;;3.99;86.79
1077;BME280;64114;48.726;9.370;2022-12-04T00:21:29;98428.44;;;5.08;86.53
1077;BME280;64114;48.726;9.370;2022-12-04T00:23:58;98422.09;;;4.90;86.67
1077;BME280;64114;48.726;9.370;2022-12-04T00:26:27;97683.22;;;0.67;86.51
1077;BME280;64114;48.726;9.370;2022-12-04T00:28:57;98431.03;;;5.11;86.27
1077;BME280;64114;48.726;9.370;2022-12-04T00:31:27;98426.81;;;5.12;85.98
1077;BME280;64114;48.726;9.370;2022-12-04T00:33:57;98363.50;;;4.83;85.61
1077;BME280;64114;48.726;9.370;2022-12-04T00:36:27;98385.84;;;4.98;85.84
1077;BME280;64114;48.726;9.370;2022-12-04T00:38:59;98433.03;;;5.24;85.69
1077;BME280;64114;48.726;9.370;2022-12-04T00:41:34;98436.41;;;5.23;85.82
1077;BME280;64114;48.726;9.370;2022-12-04T00:44:03;98438.91;;;5.22;86.50
1077;BME280;64114;48.726;9.370;2022-12-04T00:46:31;98339.22;;;4.56;86.05
1077;BME280;64114;48.726;9.370;2022-12-04T00:48:59;98441.50;;;5.23;86.23
1077;BME280;64114;48.726;9.370;2022-12-04T00:51:29;98426.25;;;5.25;86.26
1077;BME280;64114;48.726;9.370;2022-12-04T00:53:56;98425.34;;;5.21;85.88
1077;BME280;64114;48.726;9.370;2022-12-04T00:56:27;98423.66;;;5.22;86.24
1077;BME280;64114;48.726;9.370;2022-12-04T00:58:57;98416.69;;;5.13;86.59
1077;BME280;64114;48.726;9.370;2022-12-04T01:01:28;98399.53;;;5.03;86.36
1077;BME280;64114;48.726;9.370;2022-12-04T01:03:58;98424.53;;;5.22;86.73
1077;BME280;64114;48.726;9.370;2022-12-04T01:06:29;98330.09;;;4.65;86.50
1077;BME280;64114;48.726;9.370;2022-12-04T01:08:59;98447.41;;;5.24;86.83
1077;BME280;64114;48.726;9.370;2022-12-04T01:11:29;98401.44;;;5.13;86.68
1077;BME280;64114;48.726;9.370;2022-12-04T01:13:57;98422.88;;;5.26;86.34
1077;BME280;64114;48.726;9.370;2022-12-04T01:16:28;98428.81;;;5.25;86.86
1077;BME280;64114;48.726;9.370;2022-12-04T01:18:57;98424.59;;;5.26;86.42
1077;BME280;64114;48.726;9.370;2022-12-04T01:21:25;98305.03;;;4.41;85.97
1077;BME280;64114;48.726;9.370;2022-12-04T01:23:53;98422.00;;;5.24;86.38
1077;BME280;64114;48.726;9.370;2022-12-04T01:26:21;98425.41;;;5.24;85.94
1077;BME280;64114;48.726;9.370;2022-12-04T01:28:50;98433.06;;;5.26;86.05
1077;BME280;64114;48.726;9.370;2022-12-04T01:31:19;98417.78;;;5.24;86.57
1077;BME280;64114;48.726;9.370;2022-12-04T01:33:48;98416.91;;;5.24;86.45
1077;BME280;64114;48.726;9.370;2022-12-04T01:36:19;98398.00;;;5.11;86.67
1077;BME280;64114;48.726;9.370;2022-12-04T01:38:47;98415.19;;;5.23;86.74
1077;BME280;64114;48.726;9.370;2022-12-04T01:41:17;98419.47;;;5.24;86.73
1077;BME280;64114;48.726;9.370;2022-12-04T01:44:15;98424.53;;;5.24;87.06
1077;BME280;64114;48.726;9.370;2022-12-04T01:46:44;98422.03;;;5.26;86.69
1077;BME280;64114;48.726;9.370;2022-12-04T01:49:15;98419.50;;;5.26;87.29
1077;BME280;64114;48.726;9.370;2022-12-04T01:51:47;98419.47;;;5.24;87.24
1077;BME280;64114;48.726;9.370;2022-12-04T01:54:21;98420.28;;;5.23;86.98
1077;BME280;64114;48.726;9.370;2022-12-04T01:56:59;98305.16;;;4.47;87.21
1077;BME280;64114;48.726;9.370;2022-12-04T01:59:32;98435.59;;;5.26;87.07
1077;BME280;64114;48.726;9.370;2022-12-04T02:02:04;98428.72;;;5.22;87.00
1077;BME280;64114;48.726;9.370;2022-12-04T02:04:34;98413.47;;;5.22;87.24
1077;BME280;64114;48.726;9.370;2022-12-04T02:07:03;98416.09;;;5.25;86.80
1077;BME280;64114;48.726;9.370;2022-12-04T02:09:31;98417.78;;;5.24;87.20
1077;BME280;64114;48.726;9.370;2022-12-04T02:12:07;98407.56;;;5.23;86.75
1077;BME280;64114;48.726;9.370;2022-12-04T02:14:45;98404.22;;;5.24;86.82
1077;BME280;64114;48.726;9.370;2022-12-04T02:17:21;98416.91;;;5.24;87.05
1077;BME280;64114;48.726;9.370;2022-12-04T02:20:01;98402.50;;;5.23;87.42
1077;BME280;64114;48.726;9.370;2022-12-04T02:22:51;98405.03;;;5.23;87.24
1077;BME280;64114;48.726;9.370;2022-12-04T02:25:23;98405.94;;;5.25;87.10
1077;BME280;64114;48.726;9.370;2022-12-04T02:28:02;98405.00;;;5.21;86.45
1077;BME280;64114;48.726;9.370;2022-12-04T02:30:36;98402.47;;;5.21;86.45
1077;BME280;64114;48.726;9.370;2022-12-04T02:33:13;98414.28;;;5.19;86.70
1077;BME280;64114;48.726;9.370;2022-12-04T02:35:45;98411.75;;;5.19;86.81
1077;BME280;64114;48.726;9.370;2022-12-04T02:38:18;98404.94;;;5.18;86.68
1077;BME280;64114;48.726;9.370;2022-12-04T02:40:51;98402.41;;;5.18;86.60
1077;BME280;64114;48.726;9.370;2022-12-04T02:43:24;98403.25;;;5.19;86.61
1077;BME280;64114;48.726;9.370;2022-12-04T02:45:56;98394.72;;;5.17;87.15
1077;BME280;64114;48.726;9.370;2022-12-04T02:48:29;98398.16;;;5.17;86.63
1077;BME280;64114;48.726;9.370;2022-12-04T02:51:00;98395.59;;;5.17;86.79
1077;BME280;64114;48.726;9.370;2022-12-04T02:53:33;98395.63;;;5.19;86.53
1077;BME280;64114;48.726;9.370;2022-12-04T02:56:06;98390.53;;;5.19;87.04
1077;BME280;64114;48.726;9.370;2022-12-04T02:58:40;98386.28;;;5.18;87.38
1077;BME280;64114;48.726;9.370;2022-12-04T03:01:13;98352.84;;;4.98;87.18
1077;BME280;64114;48.726;9.370;2022-12-04T03:03:54;98386.34;;;5.19;86.93
1077;BME280;64114;48.726;9.370;2022-12-04T03:06:26;98380.38;;;5.19;86.71
1077;BME280;64114;48.726;9.370;2022-12-04T03:08:59;98383.75;;;5.18;86.76
1077;BME280;64114;48.726;9.370;2022-12-04T03:11:30;98393.91;;;5.18;86.98
1077;BME280;64114;48.726;9.370;2022-12-04T03:14:07;98377.81;;;5.17;86.58
1077;BME280;64114;48.726;9.370;2022-12-04T03:16:39;98379.47;;;5.15;87.14
1077;BME280;64114;48.726;9.370;2022-12-04T03:19:12;98388.81;;;5.16;87.21
1077;BME280;64114;48.726;9.370;2022-12-04T03:21:47;98365.59;;;5.01;86.75
1077;BME280;64114;48.726;9.370;2022-12-04T03:24:19;98380.31;;;5.16;86.84
1077;BME280;64114;48.726;9.370;2022-12-04T03:26:55;98367.59;;;5.14;86.30
1077;BME280;64114;48.726;9.370;2022-12-04T03:29:30;98377.75;;;5.14;86.67
1077;BME280;64114;48.726;9.370;2022-12-04T03:32:08;98380.28;;;5.14;86.42
1077;BME280;64114;48.726;9.370;2022-12-04T03:34:42;98370.13;;;5.14;86.52
1077;BME280;64114;48.726;9.370;2022-12-04T03:37:17;98361.63;;;5.12;86.87
1077;BME280;64114;48.726;9.370;2022-12-04T03:39:55;98357.31;;;5.09;87.00
1077;BME280;64114;48.726;9.370;2022-12-04T03:42:26;98371.91;;;5.18;86.49
1077;BME280;64114;48.726;9.370;2022-12-04T03:45:02;98369.31;;;5.17;86.60
1077;BME280;64114;48.726;9.370;2022-12-04T03:47:35;98363.34;;;5.15;86.86
1077;BME280;64114;48.726;9.370;2022-12-04T03:50:12;98381.13;;;5.15;86.92
1077;BME280;64114;48.726;9.370;2022-12-04T03:52:49;98360.75;;;5.12;86.74
1077;BME280;64114;48.726;9.370;2022-12-04T03:55:23;98371.88;;;5.17;86.89
1077;BME280;64114;48.726;9.370;2022-12-04T03:57:55;98369.31;;;5.15;86.67
1077;BME280;64114;48.726;9.370;2022-12-04T04:00:27;98370.97;;;5.15;87.19
1077;BME280;64114;48.726;9.370;2022-12-04T04:03:00;98381.19;;;5.16;86.78
1077;BME280;64114;48.726;9.370;2022-12-04T04:05:31;98375.22;;;5.16;86.33
1077;BME280;64114;48.726;9.370;2022-12-04T04:08:04;98382.84;;;5.16;86.63
1077;BME280;64114;48.726;9.370;2022-12-04T04:10:47;98387.91;;;5.14;86.21
1077;BME280;64114;48.726;9.370;2022-12-04T04:13:19;98395.50;;;5.13;86.15
1077;BME280;64114;48.726;9.370;2022-12-04T04:16:10;98386.19;;;5.13;86.52
1077;BME280;64114;48.726;9.370;2022-12-04T04:18:57;98398.84;;;5.12;86.47
1077;BME280;64114;48.726;9.370;2022-12-04T04:21:44;98322.59;;;4.70;86.67
1077;BME280;64114;48.726;9.370;2022-12-04T04:24:38;98396.38;;;5.13;86.42
1077;BME280;64114;48.726;9.370;2022-12-04T04:27:07;98401.47;;;5.15;86.68
1077;BME280;64114;48.726;9.370;2022-12-04T04:29:36;98397.25;;;5.15;86.57
1077;BME280;64114;48.726;9.370;2022-12-04T04:32:11;98401.44;;;5.13;86.78
1077;BME280;64114;48.726;9.370;2022-12-04T04:34:48;98403.19;;;5.16;86.86
1077;BME280;64114;48.726;9.370;2022-12-04T04:37:26;98405.78;;;5.17;86.99
1077;BME280;64114;48.726;9.370;2022-12-04T04:40:00;98402.41;;;5.18;87.14
1077;BME280;64114;48.726;9.370;2022-12-04T04:42:35;98391.34;;;5.16;86.97
1077;BME280;64114;48.726;9.370;2022-12-04T04:45:10;98391.34;;;5.16;86.89
1077;BME280;64114;48.726;9.370;2022-12-04T04:47:44;98397.28;;;5.17;86.66
1077;BME280;64114;48.726;9.370;2022-12-04T04:50:15;98349.19;;;4.86;87.10
1077;BME280;64114;48.726;9.370;2022-12-04T04:52:45;98398.91;;;5.15;87.10
1077;BME280;64114;48.726;9.370;2022-12-04T04:55:13;98400.69;;;5.17;87.45
1077;BME280;64114;48.726;9.370;2022-12-04T04:57:42;98399.81;;;5.17;87.41
1077;BME280;64114;48.726;9.370;2022-12-04T05:00:12;98335.47;;;4.79;87.08
1077;BME280;64114;48.726;9.370;2022-12-04T05:02:42;98400.69;;;5.17;86.92
1077;BME280;64114;48.726;9.370;2022-12-04T05:05:10;98401.53;;;5.18;87.12
1077;BME280;64114;48.726;9.370;2022-12-04T05:07:38;98396.44;;;5.16;87.27
1077;BME280;64114;48.726;9.370;2022-12-04T05:10:08;98395.56;;;5.16;86.98
1077;BME280;64114;48.726;9.370;2022-12-04T05:12:36;98406.59;;;5.16;87.10
1077;BME280;64114;48.726;9.370;2022-12-04T05:15:04;98398.91;;;5.15;87.46
1077;BME280;64114;48.726;9.370;2022-12-04T05:17:33;98407.44;;;5.17;87.59
1077;BME280;64114;48.726;9.370;2022-12-04T05:20:03;98392.19;;;5.17;87.61
1077;BME280;64114;48.726;9.370;2022-12-04T05:22:32;98394.81;;;5.20;87.75
1077;BME280;64114;48.726;9.370;2022-12-04T05:25:01;98392.25;;;5.20;87.64
1077;BME280;64114;48.726;9.370;2022-12-04T05:27:30;98393.97;;;5.19;87.64
1077;BME280;64114;48.726;9.370;2022-12-04T05:29:58;98383.66;;;5.13;87.23
1077;BME280;64114;48.726;9.370;2022-12-04T05:32:27;98390.53;;;5.17;87.80
1077;BME280;64114;48.726;9.370;2022-12-04T05:34:56;98391.38;;;5.18;87.83
1077;BME280;64114;48.726;9.370;2022-12-04T05:37:25;98384.56;;;5.17;87.55
1077;BME280;64114;48.726;9.370;2022-12-04T05:39:53;98379.41;;;5.12;87.72
1077;BME280;64114;48.726;9.370;2022-12-04T05:42:22;98387.09;;;5.15;87.75
1077;BME280;64114;48.726;9.370;2022-12-04T05:44:50;98385.44;;;5.17;87.78
1077;BME280;64114;48.726;9.370;2022-12-04T05:47:18;98382.78;;;5.11;90.35
1077;BME280;64114;48.726;9.370;2022-12-04T05:49:46;98388.81;;;5.16;90.48
1077;BME280;64114;48.726;9.370;2022-12-04T05:52:14;98378.72;;;5.21;88.27
1077;BME280;64114;48.726;9.370;2022-12-04T05:54:43;98379.16;;;5.01;88.49
1077;BME280;64114;48.726;9.370;2022-12-04T05:57:11;98385.19;;;5.05;89.09
1077;BME280;64114;48.726;9.370;2022-12-04T05:59:39;98360.41;;;4.96;88.57
1077;BME280;64114;48.726;9.370;2022-12-04T06:02:07;98393.63;;;5.04;88.89
1077;BME280;64114;48.726;9.370;2022-12-04T06:04:35;98385.06;;;5.00;88.60
1077;BME280;64114;48.726;9.370;2022-12-04T06:07:03;98387.56;;;4.99;88.91
1077;BME280;64114;48.726;9.370;2022-12-04T06:09:31;98386.34;;;4.83;89.65
1077;BME280;64114;48.726;9.370;2022-12-04T06:12:00;98356.56;;;4.75;89.04
1077;BME280;64114;48.726;9.370;2022-12-04T06:14:28;98376.31;;;4.87;89.29
1077;BME280;64114;48.726;9.370;2022-12-04T06:17:05;98382.28;;;4.89;88.90
1077;BME280;64114;48.726;9.370;2022-12-04T06:19:32;98378.66;;;4.79;89.92
1077;BME280;64114;48.726;9.370;2022-12-04T06:22:00;98379.56;;;4.82;89.73
1077;BME280;64114;48.726;9.370;2022-12-04T06:24:28;98385.47;;;4.80;89.52
1077;BME280;64114;48.726;9.370;2022-12-04T06:26:57;98380.44;;;4.84;89.41
1077;BME280;64114;48.726;9.370;2022-12-04T06:29:47;98383.66;;;4.76;89.57
1077;BME280;64114;48.726;9.370;2022-12-04T06:32:16;98380.97;;;4.69;90.28
1077;BME280;64114;48.726;9.370;2022-12-04T06:34:49;98380.34;;;4.79;90.59
1077;BME280;64114;48.726;9.370;2022-12-04T06:37:18;98376.94;;;4.77;90.37
1077;BME280;64114;48.726;9.370;2022-12-04T06:39:46;98372.97;;;4.90;89.84
1077;BME280;64114;48.726;9.370;2022-12-04T06:42:13;98382.22;;;4.88;89.49
1077;BME280;64114;48.726;9.370;2022-12-04T06:44:42;98387.22;;;4.83;90.00
1077;BME280;64114;48.726;9.370;2022-12-04T06:47:11;98384.75;;;4.86;90.09
1077;BME280;64114;48.726;9.370;2022-12-04T06:49:38;98384.00;;;4.90;89.82
1077;BME280;64114;48.726;9.370;2022-12-04T06:52:06;98382.81;;;4.76;89.96
1077;BME280;64114;48.726;9.370;2022-12-04T06:54:34;98377.13;;;4.86;90.08
1077;BME280;64114;48.726;9.370;2022-12-04T06:57:02;98385.38;;;4.76;90.51
1077;BME280;64114;48.726;9.370;2022-12-04T06:59:30;98339.84;;;4.47;89.92
1077;BME280;64114;48.726;9.370;2022-12-04T07:01:59;98381.88;;;4.72;89.88
1077;BME280;64114;48.726;9.370;2022-12-04T07:04:28;98387.09;;;4.78;90.52
1077;BME280;64114;48.726;9.370;2022-12-04T07:06:56;98395.66;;;4.82;90.50
1077;BME280;64114;48.726;9.370;2022-12-04T07:09:24;98395.44;;;4.73;90.72
1077;BME280;64114;48.726;9.370;2022-12-04T07:11:52;98395.69;;;4.84;90.79
1077;BME280;64114;48.726;9.370;2022-12-04T07:14:20;98405.75;;;4.79;90.57
1077;BME280;64114;48.726;9.370;2022-12-04T07:16:48;98389.63;;;4.78;90.65
1077;BME280;64114;48.726;9.370;2022-12-04T07:19:16;98395.75;;;4.85;90.85
1077;BME280;64114;48.726;9.370;2022-12-04T07:21:45;98388.19;;;4.88;90.75
1077;BME280;64114;48.726;9.370;2022-12-04T07:24:14;98391.56;;;4.87;90.62
1077;BME280;64114;48.726;9.370;2022-12-04T07:26:43;98391.28;;;4.76;91.03
1077;BME280;64114;48.726;9.370;2022-12-04T07:29:10;98387.09;;;4.77;90.77
1077;BME280;64114;48.726;9.370;2022-12-04T07:31:39;98388.81;;;4.78;90.51
1077;BME280;64114;48.726;9.370;2022-12-04T07:34:06;98379.69;;;4.86;90.64
1077;BME280;64114;48.726;9.370;2022-12-04T07:36:34;98386.47;;;4.87;90.07
1077;BME280;64114;48.726;9.370;2022-12-04T07:39:04;98389.91;;;4.89;89.41
1077;BME280;64114;48.726;9.370;2022-12-04T07:41:31;98388.28;;;4.93;89.91
1077;BME280;64114;48.726;9.370;2022-12-04T07:44:05;98386.50;;;4.89;89.55
1077;BME280;64114;48.726;9.370;2022-12-04T07:46:32;98406.03;;;4.91;89.65
1077;BME280;64114;48.726;9.370;2022-12-04T07:49:00;98406.06;;;4.93;89.78
1077;BME280;64114;48.726;9.370;2022-12-04T07:51:28;98401.84;;;4.93;89.89
1077;BME280;64114;48.726;9.370;2022-12-04T07:53:56;98402.75;;;4.96;89.41
1077;BME280;64114;48.726;9.370;2022-12-04T07:56:30;98391.69;;;4.93;89.68
1077;BME280;64114;48.726;9.370;2022-12-04T07:58:59;98386.69;;;4.98;89.54
1077;BME280;64114;48.726;9.370;2022-12-04T08:01:26;98385.75;;;4.93;89.46
1077;BME280;64114;48.726;9.370;2022-12-04T08:03:56;98387.28;;;4.86;90.10
1077;BME280;64114;48.726;9.370;2022-12-04T08:06:28;98383.13;;;4.90;89.32
1077;BME280;64114;48.726;9.370;2022-12-04T08:08:56;98390.94;;;4.98;89.21
1077;BME280;64114;48.726;9.370;2022-12-04T08:11:33;98391.72;;;4.95;88.95
1077;BME280;64114;48.726;9.370;2022-12-04T08:14:03;98395.13;;;4.96;89.44
1077;BME280;64114;48.726;9.370;2022-12-04T08:16:32;98397.63;;;4.94;89.41
1077;BME280;64114;48.726;9.370;2022-12-04T08:19:00;98400.22;;;4.97;89.63
1077;BME280;64114;48.726;9.370;2022-12-04T08:21:29;98391.03;;;5.02;89.69
1077;BME280;64114;48.726;9.370;2022-12-04T08:23:58;98395.53;;;5.14;89.25
1077;BME280;64114;48.726;9.370;2022-12-04T08:26:28;98403.84;;;5.07;89.71
1077;BME280;64114;48.726;9.370;2022-12-04T08:28:58;98408.25;;;5.14;88.87
1077;BME280;64114;48.726;9.370;2022-12-04T08:31:28;98405.66;;;5.13;88.56
1077;BME280;64114;48.726;9.370;2022-12-04T08:33:59;98408.34;;;5.19;88.67
1077;BME280;64114;48.726;9.370;2022-12-04T08:36:28;98408.03;;;5.05;89.18
1077;BME280;64114;48.726;9.370;2022-12-04T08:38:56;98414.25;;;5.18;90.03
1077;BME280;64114;48.726;9.370;2022-12-04T08:41:25;98415.06;;;5.17;89.05
1077;BME280;64114;48.726;9.370;2022-12-04T08:43:54;98412.50;;;5.15;89.56
1077;BME280;64114;48.726;9.370;2022-12-04T08:46:25;98422.59;;;5.12;89.33
1077;BME280;64114;48.726;9.370;2022-12-04T08:48:54;98434.22;;;5.02;90.20
1077;BME280;64114;48.726;9.370;2022-12-04T08:51:25;98423.31;;;5.06;89.61
1077;BME280;64114;48.726;9.370;2022-12-04T08:53:53;98424.13;;;5.05;90.92
1077;BME280;64114;48.726;9.370;2022-12-04T08:56:22;98431.81;;;5.08;91.24
1077;BME280;64114;48.726;9.370;2022-12-04T08:58:50;98434.50;;;5.15;89.94
1077;BME280;64114;48.726;9.370;2022-12-04T09:01:18;98441.22;;;5.11;91.05
1077;BME280;64114;48.726;9.370;2022-12-04T09:03:47;98432.84;;;5.17;90.14
1077;BME280;64114;48.726;9.370;2022-12-04T09:06:16;98434.63;;;5.21;90.53
1077;BME280;64114;48.726;9.370;2022-12-04T09:08:44;98441.50;;;5.23;90.33
1077;BME280;64114;48.726;9.370;2022-12-04T09:11:14;98431.00;;;5.09;91.61
1077;BME280;64114;48.726;9.370;2022-12-04T09:13:42;98429.34;;;5.12;91.21
1077;BME280;64114;48.726;9.370;2022-12-04T09:16:13;98441.13;;;5.08;90.93
1077;BME280;64114;48.726;9.370;2022-12-04T09:18:41;98377.91;;;4.84;91.05
1077;BME280;64114;48.726;9.370;2022-12-04T09:21:12;98434.50;;;5.15;91.50
1077;BME280;64114;48.726;9.370;2022-12-04T09:23:40;98423.50;;;5.14;91.32
1077;BME280;64114;48.726;9.370;2022-12-04T09:26:16;98415.03;;;5.15;90.86
1077;BME280;64114;48.726;9.370;2022-12-04T09:28:45;98413.13;;;5.05;90.59
1077;BME280;64114;48.726;9.370;2022-12-04T09:31:12;98403.03;;;5.08;90.79
1077;BME280;64114;48.726;9.370;2022-12-04T09:33:40;98398.84;;;5.10;90.70
1077;BME280;64114;48.726;9.370;2022-12-04T09:36:10;98400.56;;;5.13;91.09
1077;BME280;64114;48.726;9.370;2022-12-04T09:38:42;98365.69;;;5.05;90.60
1077;BME280;64114;48.726;9.370;2022-12-04T09:41:26;98385.56;;;5.23;90.25
1077;BME280;64114;48.726;9.370;2022-12-04T09:44:03;98376.13;;;5.18;89.53
1077;BME280;64114;48.726;9.370;2022-12-04T09:46:34;98372.03;;;5.24;89.42
1077;BME280;64114;48.726;9.370;2022-12-04T09:49:06;98359.22;;;5.18;89.91
1077;BME280;64114;48.726;9.370;2022-12-04T09:51:39;98356.66;;;5.18;90.04
1077;BME280;64114;48.726;9.370;2022-12-04T09:54:12;98362.72;;;5.25;89.31
1077;BME280;64114;48.726;9.370;2022-12-04T09:56:43;98351.84;;;5.31;89.25
1077;BME280;64114;48.726;9.370;2022-12-04T09:59:14;98340.66;;;5.22;89.79
1077;BME280;64114;48.726;9.370;2022-12-04T10:01:45;98334.81;;;5.27;90.18
1077;BME280;64114;48.726;9.370;2022-12-04T10:04:14;98336.47;;;5.26;90.59
1077;BME280;64114;48.726;9.370;2022-12-04T10:06:47;98335.63;;;5.26;89.91
1077;BME280;64114;48.726;9.370;2022-12-04T10:09:19;98340.03;;;5.34;90.05
1077;BME280;64114;48.726;9.370;2022-12-04T10:11:54;98339.84;;;5.25;89.53
1077;BME280;64114;48.726;9.370;2022-12-04T10:14:48;98340.03;;;5.33;89.42
1077;BME280;64114;48.726;9.370;2022-12-04T10:17:34;98339.31;;;5.40;89.00
1077;BME280;64114;48.726;9.370;2022-12-04T10:20:17;98340.59;;;5.21;90.24
1077;BME280;64114;48.726;9.370;2022-12-04T10:22:55;98335.41;;;5.15;90.40
1077;BME280;64114;48.726;9.370;2022-12-04T10:25:27;98329.56;;;5.19;90.72
1077;BME280;64114;48.726;9.370;2022-12-04T10:27:59;98332.28;;;5.27;90.49
1077;BME280;64114;48.726;9.370;2022-12-04T10:30:31;98343.25;;;5.26;91.25
1077;BME280;64114;48.726;9.370;2022-12-04T10:33:04;98366.13;;;5.26;91.95
1077;BME280;64114;48.726;9.370;2022-12-04T10:35:41;98368.69;;;5.27;91.91
1077;BME280;64114;48.726;9.370;2022-12-04T10:38:17;98357.56;;;5.22;91.48
1077;BME280;64114;48.726;9.370;2022-12-04T10:40:53;98363.59;;;5.26;91.64
1077;BME280;64114;48.726;9.370;2022-12-04T10:43:33;98361.00;;;5.24;91.35
1077;BME280;64114;48.726;9.370;2022-12-04T10:46:03;98366.91;;;5.21;91.53
1077;BME280;64114;48.726;9.370;2022-12-04T10:48:34;98358.53;;;5.27;91.54
1077;BME280;64114;48.726;9.370;2022-12-04T10:51:03;98353.38;;;5.22;91.79
1077;BME280;64114;48.726;9.370;2022-12-04T10:53:34;98351.72;;;5.26;92.23
1077;BME280;64114;48.726;9.370;2022-12-04T10:56:11;98351.78;;;5.28;91.76
1077;BME280;64114;48.726;9.370;2022-12-04T10:58:39;98342.63;;;5.37;91.56
1077;BME280;64114;48.726;9.370;2022-12-04T11:01:09;98337.41;;;5.30;91.58
1077;BME280;64114;48.726;9.370;2022-12-04T11:03:38;98328.84;;;5.24;92.47
1077;BME280;64114;48.726;9.370;2022-12-04T11:06:08;98346.00;;;5.35;92.71
1077;BME280;64114;48.726;9.370;2022-12-04T11:08:40;98341.78;;;5.37;92.57
1077;BME280;64114;48.726;9.370;2022-12-04T11:11:11;98350.84;;;5.24;92.44
1077;BME280;64114;48.726;9.370;2022-12-04T11:13:40;98339.97;;;5.31;92.62
1077;BME280;64114;48.726;9.370;2022-12-04T11:16:31;98345.28;;;5.42;93.92
1077;BME280;64114;48.726;9.370;2022-12-04T11:18:59;98330.81;;;5.39;93.60
1077;BME280;64114;48.726;9.370;2022-12-04T11:21:28;98301.78;;;5.27;93.08
1077;BME280;64114;48.726;9.370;2022-12-04T11:23:58;98307.69;;;5.27;93.00
1077;BME280;64114;48.726;9.370;2022-12-04T11:26:30;98298.47;;;5.32;92.57
1077;BME280;64114;48.726;9.370;2022-12-04T11:29:00;98316.16;;;5.26;92.29
1077;BME280;64114;48.726;9.370;2022-12-04T11:31:28;98339.03;;;5.26;93.52
1077;BME280;64114;48.726;9.370;2022-12-04T11:33:59;98343.38;;;5.32;95.20
1077;BME280;64114;48.726;9.370;2022-12-04T11:36:30;98348.66;;;5.41;95.23
1077;BME280;64114;48.726;9.370;2022-12-04T11:39:06;98351.28;;;5.46;93.85
1077;BME280;64114;48.726;9.370;2022-12-04T11:41:41;98349.56;;;5.45;92.42
1077;BME280;64114;48.726;9.370;2022-12-04T11:44:21;98349.63;;;5.48;92.22
1077;BME280;64114;48.726;9.370;2022-12-04T11:46:51;98334.41;;;5.49;91.22
1077;BME280;64114;48.726;9.370;2022-12-04T11:49:20;98350.75;;;5.61;90.49
1077;BME280;64114;48.726;9.370;2022-12-04T11:51:53;98340.38;;;5.51;91.44
1077;BME280;64114;48.726;9.370;2022-12-04T11:54:31;98321.66;;;5.48;91.81
1077;BME280;64114;48.726;9.370;2022-12-04T11:57:07;98316.81;;;5.60;90.24
1077;BME280;64114;48.726;9.370;2022-12-04T11:59:54;98299.66;;;5.50;90.70
1077;BME280;64114;48.726;9.370;2022-12-04T12:02:34;98287.72;;;5.46;90.69
1077;BME280;64114;48.726;9.370;2022-12-04T12:05:23;98306.34;;;5.45;90.85
1077;BME280;64114;48.726;9.370;2022-12-04T12:08:02;98312.41;;;5.51;90.49
1077;BME280;64114;48.726;9.370;2022-12-04T12:10:38;98311.47;;;5.48;90.51
1077;BME280;64114;48.726;9.370;2022-12-04T12:13:16;98313.25;;;5.50;90.81
1077;BME280;64114;48.726;9.370;2022-12-04T12:15:52;98304.69;;;5.47;91.39
1077;BME280;64114;48.726;9.370;2022-12-04T12:18:37;98277.44;;;5.39;91.43
1077;BME280;64114;48.726;9.370;2022-12-04T12:21:15;98268.97;;;5.39;90.80
1077;BME280;64114;48.726;9.370;2022-12-04T12:23:52;98258.78;;;5.39;90.48
1077;BME280;64114;48.726;9.370;2022-12-04T12:26:35;98269.03;;;5.42;91.20
1077;BME280;64114;48.726;9.370;2022-12-04T12:29:15;98275.00;;;5.46;90.54
1077;BME280;64114;48.726;9.370;2022-12-04T12:32:03;98285.22;;;5.47;90.51
1077;BME280;64114;48.726;9.370;2022-12-04T12:34:37;98288.72;;;5.52;89.91
1077;BME280;64114;48.726;9.370;2022-12-04T12:37:11;98263.00;;;5.38;89.56
1077;BME280;64114;48.726;9.370;2022-12-04T12:39:46;98282.69;;;5.49;89.31
1077;BME280;64114;48.726;9.370;2022-12-04T12:42:20;98280.97;;;5.46;89.51
1077;BME280;64114;48.726;9.370;2022-12-04T12:44:54;98286.06;;;5.48;89.68
1077;BME280;64114;48.726;9.370;2022-12-04T12:47:29;98279.19;;;5.42;90.05
1077;BME280;64114;48.726;9.370;2022-12-04T12:50:02;98275.00;;;5.44;90.28
1077;BME280;64114;48.726;9.370;2022-12-04T12:52:37;98264.78;;;5.43;89.60
1077;BME280;64114;48.726;9.370;2022-12-04T12:55:14;98265.31;;;5.24;91.37
1077;BME280;64114;48.726;9.370;2022-12-04T12:57:54;98256.72;;;5.19;92.15
1077;BME280;64114;48.726;9.370;2022-12-04T13:00:25;98268.50;;;5.16;92.43
1077;BME280;64114;48.726;9.370;2022-12-04T13:02:59;98233.25;;;4.88;92.47
1077;BME280;64114;48.726;9.370;2022-12-04T13:05:32;98294.03;;;5.20;92.35
1077;BME280;64114;48.726;9.370;2022-12-04T13:08:05;98178.81;;;4.34;92.65
1077;BME280;64114;48.726;9.370;2022-12-04T13:10:45;98253.91;;;5.05;91.85
1077;BME280;64114;48.726;9.370;2022-12-04T13:13:22;97865.03;;;2.64;91.57
1077;BME280;64114;48.726;9.370;2022-12-04T13:15:54;98238.38;;;4.91;92.25
1077;BME280;64114;48.726;9.370;2022-12-04T13:18:26;98308.31;;;5.15;92.38
1077;BME280;64114;48.726;9.370;2022-12-04T13:20:58;98153.53;;;4.00;91.90
1077;BME280;64114;48.726;9.370;2022-12-04T13:23:45;98075.19;;;3.73;93.06
1077;BME280;64114;48.726;9.370;2022-12-04T13:26:28;98088.00;;;3.81;93.10
1077;BME280;64114;48.726;9.370;2022-12-04T13:29:11;98009.13;;;3.28;93.46
1077;BME280;64114;48.726;9.370;2022-12-04T13:31:47;98195.16;;;4.47;93.92
1077;BME280;64114;48.726;9.370;2022-12-04T13:34:39;98224.28;;;4.64;94.29
1077;BME280;64114;48.726;9.370;2022-12-04T13:37:23;98290.22;;;5.00;94.98
1077;BME280;64114;48.726;9.370;2022-12-04T13:40:28;98161.47;;;4.14;94.85
1077;BME280;64114;48.726;9.370;2022-12-04T13:43:16;98267.28;;;4.97;95.35
1077;BME280;64114;48.726;9.370;2022-12-04T13:45:49;98298.97;;;5.14;94.81
1077;BME280;64114;48.726;9.370;2022-12-04T13:48:27;98284.44;;;5.08;94.90
1077;BME280;64114;48.726;9.370;2022-12-04T13:51:05;98289.59;;;5.12;94.67